sensor_id;sensor_type;location;lat;lon;timestamp;P1;durP1;ratioP1;P2;durP2;ratioP2
78873;SDS011;68250;43.514;1.494;2023-07-29T00:01:08;6.10;;;3.70;;
78873;SDS011;68250;43.514;1.494;2023-07-29T00:03:34;5.40;;;2.90;;
78873;SDS011;68250;43.514;1.494;2023-07-29T00:05:59;5.32;;;3.20;;
78873;SDS011;68250;43.514;1.494;2023-07-29T00:08:25;5.73;;;3.23;;
78873;SDS011;68250;43.514;1.494;2023-07-29T00:10:51;5.30;;;3.45;;
78873;SDS011;68250;43.514;1.494;2023-07-29T00:13:17;6.25;;;3.78;;
78873;SDS011;68250;43.514;1.494;2023-07-29T00:15:43;5.70;;;3.43;;
78873;SDS011;68250;43.514;1.494;2023-07-29T00:18:08;5.78;;;3.40;;
78873;SDS011;68250;43.514;1.494;2023-07-29T00:20:34;5.83;;;3.00;;
78873;SDS011;68250;43.514;1.494;2023-07-29T00:22:59;7.47;;;3.42;;
78873;SDS011;68250;43.514;1.494;2023-07-29T00:25:26;6.00;;;3.50;;
78873;SDS011;68250;43.514;1.494;2023-07-29T00:27:54;6.35;;;3.78;;
78873;SDS011;68250;43.514;1.494;2023-07-29T00:30:20;6.18;;;3.50;;
78873;SDS011;68250;43.514;1.494;2023-07-29T00:32:46;7.93;;;3.60;;
78873;SDS011;68250;43.514;1.494;2023-07-29T00:35:12;5.40;;;3.20;;
78873;SDS011;68250;43.514;1.494;2023-07-29T00:37:38;6.57;;;3.88;;
78873;SDS011;68250;43.514;1.494;2023-07-29T00:40:06;5.05;;;3.20;;
78873;SDS011;68250;43.514;1.494;2023-07-29T00:42:37;7.10;;;3.60;;
78873;SDS011;68250;43.514;1.494;2023-07-29T00:45:03;4.90;;;3.35;;
78873;SDS011;68250;43.514;1.494;2023-07-29T00:47:31;5.43;;;3.30;;
78873;SDS011;68250;43.514;1.494;2023-07-29T00:49:56;7.17;;;3.50;;
78873;SDS011;68250;43.514;1.494;2023-07-29T00:52:22;5.87;;;3.57;;
78873;SDS011;68250;43.514;1.494;2023-07-29T00:54:48;6.15;;;3.50;;
78873;SDS011;68250;43.514;1.494;2023-07-29T00:57:13;6.90;;;3.43;;
78873;SDS011;68250;43.514;1.494;2023-07-29T00:59:40;7.22;;;3.45;;
78873;SDS011;68250;43.514;1.494;2023-07-29T01:02:07;5.25;;;3.25;;
78873;SDS011;68250;43.514;1.494;2023-07-29T01:04:33;6.45;;;3.55;;
78873;SDS011;68250;43.514;1.494;2023-07-29T01:10:10;6.03;;;3.33;;
78873;SDS011;68250;43.514;1.494;2023-07-29T01:15:35;6.10;;;3.38;;
78873;SDS011;68250;43.514;1.494;2023-07-29T01:18:08;7.75;;;3.95;;
78873;SDS011;68250;43.514;1.494;2023-07-29T01:20:37;5.90;;;3.57;;
78873;SDS011;68250;43.514;1.494;2023-07-29T01:23:04;5.68;;;3.60;;
78873;SDS011;68250;43.514;1.494;2023-07-29T01:25:30;6.50;;;3.90;;
78873;SDS011;68250;43.514;1.494;2023-07-29T01:27:55;6.03;;;3.90;;
78873;SDS011;68250;43.514;1.494;2023-07-29T01:30:22;5.68;;;3.65;;
78873;SDS011;68250;43.514;1.494;2023-07-29T01:32:56;5.70;;;3.17;;
78873;SDS011;68250;43.514;1.494;2023-07-29T01:35:28;6.83;;;3.23;;
78873;SDS011;68250;43.514;1.494;2023-07-29T01:38:04;6.68;;;3.42;;
78873;SDS011;68250;43.514;1.494;2023-07-29T01:40:32;6.32;;;3.88;;
78873;SDS011;68250;43.514;1.494;2023-07-29T01:42:58;6.20;;;3.45;;
78873;SDS011;68250;43.514;1.494;2023-07-29T01:45:24;5.30;;;3.42;;
78873;SDS011;68250;43.514;1.494;2023-07-29T01:47:53;5.93;;;3.40;;
78873;SDS011;68250;43.514;1.494;2023-07-29T01:50:19;8.50;;;3.70;;
78873;SDS011;68250;43.514;1.494;2023-07-29T01:52:44;6.78;;;3.80;;
78873;SDS011;68250;43.514;1.494;2023-07-29T01:55:10;5.87;;;3.70;;
78873;SDS011;68250;43.514;1.494;2023-07-29T01:57:36;6.57;;;4.03;;
78873;SDS011;68250;43.514;1.494;2023-07-29T02:00:02;5.93;;;3.67;;
78873;SDS011;68250;43.514;1.494;2023-07-29T02:02:29;6.13;;;3.80;;
78873;SDS011;68250;43.514;1.494;2023-07-29T02:04:54;5.53;;;3.90;;
78873;SDS011;68250;43.514;1.494;2023-07-29T02:07:21;8.82;;;3.70;;
78873;SDS011;68250;43.514;1.494;2023-07-29T02:09:46;5.53;;;3.47;;
78873;SDS011;68250;43.514;1.494;2023-07-29T02:12:12;7.43;;;3.92;;
78873;SDS011;68250;43.514;1.494;2023-07-29T02:14:38;6.30;;;3.90;;
78873;SDS011;68250;43.514;1.494;2023-07-29T02:17:03;6.03;;;3.45;;
78873;SDS011;68250;43.514;1.494;2023-07-29T02:19:29;7.80;;;3.67;;
78873;SDS011;68250;43.514;1.494;2023-07-29T02:21:55;5.85;;;3.88;;
78873;SDS011;68250;43.514;1.494;2023-07-29T02:24:20;6.43;;;3.57;;
78873;SDS011;68250;43.514;1.494;2023-07-29T02:26:46;7.38;;;3.72;;
78873;SDS011;68250;43.514;1.494;2023-07-29T02:29:12;5.87;;;3.77;;
78873;SDS011;68250;43.514;1.494;2023-07-29T02:31:37;5.28;;;3.47;;
78873;SDS011;68250;43.514;1.494;2023-07-29T02:34:04;6.37;;;3.50;;
78873;SDS011;68250;43.514;1.494;2023-07-29T02:36:30;7.00;;;3.75;;
78873;SDS011;68250;43.514;1.494;2023-07-29T02:38:55;7.17;;;3.70;;
78873;SDS011;68250;43.514;1.494;2023-07-29T02:41:21;6.60;;;3.60;;
78873;SDS011;68250;43.514;1.494;2023-07-29T02:43:50;5.77;;;3.80;;
78873;SDS011;68250;43.514;1.494;2023-07-29T02:46:16;5.73;;;3.70;;
78873;SDS011;68250;43.514;1.494;2023-07-29T02:48:42;6.38;;;4.20;;
78873;SDS011;68250;43.514;1.494;2023-07-29T02:51:09;6.03;;;3.65;;
78873;SDS011;68250;43.514;1.494;2023-07-29T02:53:35;5.90;;;3.93;;
78873;SDS011;68250;43.514;1.494;2023-07-29T02:56:02;6.35;;;3.63;;
78873;SDS011;68250;43.514;1.494;2023-07-29T02:58:28;7.30;;;3.75;;
78873;SDS011;68250;43.514;1.494;2023-07-29T03:01:00;5.82;;;4.15;;
78873;SDS011;68250;43.514;1.494;2023-07-29T03:03:28;5.10;;;3.23;;
78873;SDS011;68250;43.514;1.494;2023-07-29T03:06:00;8.15;;;3.65;;
78873;SDS011;68250;43.514;1.494;2023-07-29T03:08:29;6.60;;;3.38;;
78873;SDS011;68250;43.514;1.494;2023-07-29T03:10:55;6.03;;;3.40;;
78873;SDS011;68250;43.514;1.494;2023-07-29T03:13:21;7.32;;;3.75;;
78873;SDS011;68250;43.514;1.494;2023-07-29T03:15:47;5.53;;;3.53;;
78873;SDS011;68250;43.514;1.494;2023-07-29T03:18:13;6.47;;;4.30;;
78873;SDS011;68250;43.514;1.494;2023-07-29T03:20:39;6.88;;;3.95;;
78873;SDS011;68250;43.514;1.494;2023-07-29T03:23:05;7.00;;;3.83;;
78873;SDS011;68250;43.514;1.494;2023-07-29T03:25:31;5.82;;;3.63;;
78873;SDS011;68250;43.514;1.494;2023-07-29T03:27:57;5.87;;;3.60;;
78873;SDS011;68250;43.514;1.494;2023-07-29T03:30:23;5.75;;;3.42;;
78873;SDS011;68250;43.514;1.494;2023-07-29T03:32:49;6.00;;;3.83;;
78873;SDS011;68250;43.514;1.494;2023-07-29T03:35:15;6.82;;;3.60;;
78873;SDS011;68250;43.514;1.494;2023-07-29T03:37:41;6.07;;;3.88;;
78873;SDS011;68250;43.514;1.494;2023-07-29T03:40:06;5.60;;;3.27;;
78873;SDS011;68250;43.514;1.494;2023-07-29T03:42:34;6.50;;;3.35;;
78873;SDS011;68250;43.514;1.494;2023-07-29T03:45:00;6.82;;;3.80;;
78873;SDS011;68250;43.514;1.494;2023-07-29T03:47:26;6.23;;;3.60;;
78873;SDS011;68250;43.514;1.494;2023-07-29T03:49:52;6.10;;;4.00;;
78873;SDS011;68250;43.514;1.494;2023-07-29T03:52:18;9.38;;;3.90;;
78873;SDS011;68250;43.514;1.494;2023-07-29T03:54:43;5.50;;;3.57;;
78873;SDS011;68250;43.514;1.494;2023-07-29T03:57:09;6.10;;;3.75;;
78873;SDS011;68250;43.514;1.494;2023-07-29T03:59:35;9.17;;;3.67;;
78873;SDS011;68250;43.514;1.494;2023-07-29T04:02:00;6.28;;;3.35;;
78873;SDS011;68250;43.514;1.494;2023-07-29T04:04:26;6.03;;;3.60;;
78873;SDS011;68250;43.514;1.494;2023-07-29T04:06:51;7.90;;;3.60;;
78873;SDS011;68250;43.514;1.494;2023-07-29T04:09:17;7.50;;;3.35;;
78873;SDS011;68250;43.514;1.494;2023-07-29T04:11:43;6.93;;;3.50;;
78873;SDS011;68250;43.514;1.494;2023-07-29T04:14:08;7.57;;;3.72;;
78873;SDS011;68250;43.514;1.494;2023-07-29T04:16:34;6.57;;;3.80;;
78873;SDS011;68250;43.514;1.494;2023-07-29T04:19:00;6.25;;;3.28;;
78873;SDS011;68250;43.514;1.494;2023-07-29T04:21:25;7.93;;;4.03;;
78873;SDS011;68250;43.514;1.494;2023-07-29T04:23:51;7.40;;;4.27;;
78873;SDS011;68250;43.514;1.494;2023-07-29T04:26:17;8.07;;;4.13;;
78873;SDS011;68250;43.514;1.494;2023-07-29T04:28:42;6.40;;;3.97;;
78873;SDS011;68250;43.514;1.494;2023-07-29T04:31:08;6.40;;;3.90;;
78873;SDS011;68250;43.514;1.494;2023-07-29T04:33:34;6.13;;;3.67;;
78873;SDS011;68250;43.514;1.494;2023-07-29T04:35:59;7.80;;;4.30;;
78873;SDS011;68250;43.514;1.494;2023-07-29T04:38:30;6.33;;;4.03;;
78873;SDS011;68250;43.514;1.494;2023-07-29T04:40:57;6.53;;;3.70;;
78873;SDS011;68250;43.514;1.494;2023-07-29T04:43:29;7.82;;;4.28;;
78873;SDS011;68250;43.514;1.494;2023-07-29T04:45:56;6.50;;;3.88;;
78873;SDS011;68250;43.514;1.494;2023-07-29T04:48:21;8.23;;;3.50;;
78873;SDS011;68250;43.514;1.494;2023-07-29T04:50:47;7.57;;;3.70;;
78873;SDS011;68250;43.514;1.494;2023-07-29T04:53:13;7.03;;;3.60;;
78873;SDS011;68250;43.514;1.494;2023-07-29T04:55:41;8.18;;;3.83;;
78873;SDS011;68250;43.514;1.494;2023-07-29T04:58:07;6.88;;;3.70;;
78873;SDS011;68250;43.514;1.494;2023-07-29T05:00:33;5.60;;;3.67;;
78873;SDS011;68250;43.514;1.494;2023-07-29T05:02:59;5.93;;;3.72;;
78873;SDS011;68250;43.514;1.494;2023-07-29T05:05:26;5.87;;;3.63;;
78873;SDS011;68250;43.514;1.494;2023-07-29T05:07:52;6.45;;;3.65;;
78873;SDS011;68250;43.514;1.494;2023-07-29T05:10:17;6.25;;;3.67;;
78873;SDS011;68250;43.514;1.494;2023-07-29T05:12:43;6.10;;;3.87;;
78873;SDS011;68250;43.514;1.494;2023-07-29T05:15:09;7.53;;;3.80;;
78873;SDS011;68250;43.514;1.494;2023-07-29T05:17:35;6.03;;;3.80;;
78873;SDS011;68250;43.514;1.494;2023-07-29T05:20:00;6.20;;;3.70;;
78873;SDS011;68250;43.514;1.494;2023-07-29T05:22:26;7.10;;;3.80;;
78873;SDS011;68250;43.514;1.494;2023-07-29T05:24:52;7.28;;;4.00;;
78873;SDS011;68250;43.514;1.494;2023-07-29T05:27:17;6.93;;;3.80;;
78873;SDS011;68250;43.514;1.494;2023-07-29T05:29:43;9.17;;;3.70;;
78873;SDS011;68250;43.514;1.494;2023-07-29T05:32:08;6.63;;;4.10;;
78873;SDS011;68250;43.514;1.494;2023-07-29T05:34:34;7.20;;;4.03;;
78873;SDS011;68250;43.514;1.494;2023-07-29T05:37:00;6.75;;;4.10;;
78873;SDS011;68250;43.514;1.494;2023-07-29T05:39:25;7.20;;;4.03;;
78873;SDS011;68250;43.514;1.494;2023-07-29T05:41:51;7.70;;;4.07;;
78873;SDS011;68250;43.514;1.494;2023-07-29T05:44:17;6.67;;;4.10;;
78873;SDS011;68250;43.514;1.494;2023-07-29T05:46:42;6.68;;;4.32;;
78873;SDS011;68250;43.514;1.494;2023-07-29T05:49:08;6.93;;;4.17;;
78873;SDS011;68250;43.514;1.494;2023-07-29T05:51:34;7.50;;;4.27;;
78873;SDS011;68250;43.514;1.494;2023-07-29T05:53:59;8.65;;;4.55;;
78873;SDS011;68250;43.514;1.494;2023-07-29T05:56:25;6.77;;;4.00;;
78873;SDS011;68250;43.514;1.494;2023-07-29T05:58:51;7.13;;;4.40;;
78873;SDS011;68250;43.514;1.494;2023-07-29T06:01:16;7.00;;;4.77;;
78873;SDS011;68250;43.514;1.494;2023-07-29T06:03:46;8.32;;;4.13;;
78873;SDS011;68250;43.514;1.494;2023-07-29T06:06:12;8.07;;;4.82;;
78873;SDS011;68250;43.514;1.494;2023-07-29T06:08:37;6.80;;;4.57;;
78873;SDS011;68250;43.514;1.494;2023-07-29T06:11:03;8.87;;;4.77;;
78873;SDS011;68250;43.514;1.494;2023-07-29T06:13:31;10.65;;;5.30;;
78873;SDS011;68250;43.514;1.494;2023-07-29T06:15:57;7.35;;;5.20;;
78873;SDS011;68250;43.514;1.494;2023-07-29T06:18:23;7.40;;;5.35;;
78873;SDS011;68250;43.514;1.494;2023-07-29T06:20:49;9.60;;;5.03;;
78873;SDS011;68250;43.514;1.494;2023-07-29T06:23:15;9.73;;;5.35;;
78873;SDS011;68250;43.514;1.494;2023-07-29T06:25:41;10.23;;;5.20;;
78873;SDS011;68250;43.514;1.494;2023-07-29T06:28:06;7.20;;;5.03;;
78873;SDS011;68250;43.514;1.494;2023-07-29T06:30:32;9.17;;;5.43;;
78873;SDS011;68250;43.514;1.494;2023-07-29T06:32:58;9.32;;;5.90;;
78873;SDS011;68250;43.514;1.494;2023-07-29T06:35:24;9.32;;;5.75;;
78873;SDS011;68250;43.514;1.494;2023-07-29T06:37:50;8.70;;;5.70;;
78873;SDS011;68250;43.514;1.494;2023-07-29T06:40:15;7.90;;;5.50;;
78873;SDS011;68250;43.514;1.494;2023-07-29T06:42:41;11.43;;;5.95;;
78873;SDS011;68250;43.514;1.494;2023-07-29T06:45:07;9.07;;;6.10;;
78873;SDS011;68250;43.514;1.494;2023-07-29T06:47:33;11.50;;;5.93;;
78873;SDS011;68250;43.514;1.494;2023-07-29T06:49:58;9.25;;;5.68;;
78873;SDS011;68250;43.514;1.494;2023-07-29T06:52:24;13.60;;;6.93;;
78873;SDS011;68250;43.514;1.494;2023-07-29T06:54:50;10.43;;;6.45;;
78873;SDS011;68250;43.514;1.494;2023-07-29T06:57:16;8.93;;;6.17;;
78873;SDS011;68250;43.514;1.494;2023-07-29T06:59:42;9.75;;;6.28;;
78873;SDS011;68250;43.514;1.494;2023-07-29T07:02:07;9.25;;;6.00;;
78873;SDS011;68250;43.514;1.494;2023-07-29T07:04:33;9.90;;;6.30;;
78873;SDS011;68250;43.514;1.494;2023-07-29T07:06:59;8.18;;;6.38;;
78873;SDS011;68250;43.514;1.494;2023-07-29T07:09:24;8.70;;;6.37;;
78873;SDS011;68250;43.514;1.494;2023-07-29T07:11:50;8.93;;;6.07;;
78873;SDS011;68250;43.514;1.494;2023-07-29T07:14:16;8.10;;;5.78;;
78873;SDS011;68250;43.514;1.494;2023-07-29T07:16:41;7.70;;;5.97;;
78873;SDS011;68250;43.514;1.494;2023-07-29T07:19:10;8.55;;;5.80;;
78873;SDS011;68250;43.514;1.494;2023-07-29T07:21:36;7.90;;;5.50;;
78873;SDS011;68250;43.514;1.494;2023-07-29T07:24:05;7.72;;;6.05;;
78873;SDS011;68250;43.514;1.494;2023-07-29T07:26:31;6.97;;;5.47;;
78873;SDS011;68250;43.514;1.494;2023-07-29T07:28:56;7.45;;;4.95;;
78873;SDS011;68250;43.514;1.494;2023-07-29T07:31:22;7.20;;;5.10;;
78873;SDS011;68250;43.514;1.494;2023-07-29T07:33:48;7.07;;;5.20;;
78873;SDS011;68250;43.514;1.494;2023-07-29T07:36:14;7.00;;;4.60;;
78873;SDS011;68250;43.514;1.494;2023-07-29T07:38:40;9.30;;;5.10;;
78873;SDS011;68250;43.514;1.494;2023-07-29T07:41:06;7.40;;;5.77;;
78873;SDS011;68250;43.514;1.494;2023-07-29T07:43:32;7.70;;;5.50;;
78873;SDS011;68250;43.514;1.494;2023-07-29T07:45:58;7.03;;;5.35;;
78873;SDS011;68250;43.514;1.494;2023-07-29T07:48:25;8.40;;;5.40;;
78873;SDS011;68250;43.514;1.494;2023-07-29T07:50:51;8.95;;;5.50;;
78873;SDS011;68250;43.514;1.494;2023-07-29T07:53:17;7.85;;;5.05;;
78873;SDS011;68250;43.514;1.494;2023-07-29T07:55:42;9.40;;;4.90;;
78873;SDS011;68250;43.514;1.494;2023-07-29T07:58:08;7.78;;;5.22;;
78873;SDS011;68250;43.514;1.494;2023-07-29T08:00:34;7.60;;;4.90;;
78873;SDS011;68250;43.514;1.494;2023-07-29T08:02:59;7.83;;;4.97;;
78873;SDS011;68250;43.514;1.494;2023-07-29T08:05:25;8.23;;;5.07;;
78873;SDS011;68250;43.514;1.494;2023-07-29T08:07:51;7.57;;;4.77;;
78873;SDS011;68250;43.514;1.494;2023-07-29T08:10:16;6.25;;;4.85;;
78873;SDS011;68250;43.514;1.494;2023-07-29T08:12:42;7.23;;;5.27;;
78873;SDS011;68250;43.514;1.494;2023-07-29T08:15:08;7.55;;;5.30;;
78873;SDS011;68250;43.514;1.494;2023-07-29T08:17:34;9.00;;;5.10;;
78873;SDS011;68250;43.514;1.494;2023-07-29T08:19:59;9.73;;;5.20;;
78873;SDS011;68250;43.514;1.494;2023-07-29T08:22:25;8.07;;;4.70;;
78873;SDS011;68250;43.514;1.494;2023-07-29T08:24:50;8.57;;;5.20;;
78873;SDS011;68250;43.514;1.494;2023-07-29T08:27:16;7.40;;;4.87;;
78873;SDS011;68250;43.514;1.494;2023-07-29T08:29:42;9.53;;;5.03;;
78873;SDS011;68250;43.514;1.494;2023-07-29T08:32:07;7.03;;;4.83;;
78873;SDS011;68250;43.514;1.494;2023-07-29T08:34:34;7.53;;;4.68;;
78873;SDS011;68250;43.514;1.494;2023-07-29T08:36:59;7.38;;;4.40;;
78873;SDS011;68250;43.514;1.494;2023-07-29T08:39:25;8.20;;;4.70;;
78873;SDS011;68250;43.514;1.494;2023-07-29T08:44:22;6.85;;;3.83;;
78873;SDS011;68250;43.514;1.494;2023-07-29T08:46:49;6.47;;;4.10;;
78873;SDS011;68250;43.514;1.494;2023-07-29T08:49:16;6.28;;;3.83;;
78873;SDS011;68250;43.514;1.494;2023-07-29T08:51:47;7.30;;;3.83;;
78873;SDS011;68250;43.514;1.494;2023-07-29T08:54:16;5.25;;;3.70;;
78873;SDS011;68250;43.514;1.494;2023-07-29T08:56:42;7.33;;;3.90;;
78873;SDS011;68250;43.514;1.494;2023-07-29T08:59:08;5.95;;;3.53;;
78873;SDS011;68250;43.514;1.494;2023-07-29T09:01:34;6.97;;;3.63;;
78873;SDS011;68250;43.514;1.494;2023-07-29T09:03:59;5.57;;;3.80;;
78873;SDS011;68250;43.514;1.494;2023-07-29T09:06:25;5.05;;;3.33;;
78873;SDS011;68250;43.514;1.494;2023-07-29T09:08:53;6.93;;;3.58;;
78873;SDS011;68250;43.514;1.494;2023-07-29T09:11:21;5.15;;;3.20;;
78873;SDS011;68250;43.514;1.494;2023-07-29T09:13:47;7.53;;;3.50;;
78873;SDS011;68250;43.514;1.494;2023-07-29T09:16:13;25.10;;;4.32;;
78873;SDS011;68250;43.514;1.494;2023-07-29T09:18:39;5.68;;;3.78;;
78873;SDS011;68250;43.514;1.494;2023-07-29T09:21:05;6.43;;;3.70;;
78873;SDS011;68250;43.514;1.494;2023-07-29T09:23:43;7.13;;;3.80;;
78873;SDS011;68250;43.514;1.494;2023-07-29T09:26:09;7.18;;;4.10;;
78873;SDS011;68250;43.514;1.494;2023-07-29T09:28:37;5.60;;;3.93;;
78873;SDS011;68250;43.514;1.494;2023-07-29T09:31:04;6.95;;;4.00;;
78873;SDS011;68250;43.514;1.494;2023-07-29T09:33:33;7.82;;;3.83;;
78873;SDS011;68250;43.514;1.494;2023-07-29T09:36:08;6.78;;;4.00;;
78873;SDS011;68250;43.514;1.494;2023-07-29T09:38:34;6.75;;;3.88;;
78873;SDS011;68250;43.514;1.494;2023-07-29T09:41:03;7.40;;;4.70;;
78873;SDS011;68250;43.514;1.494;2023-07-29T09:43:30;7.57;;;4.18;;
78873;SDS011;68250;43.514;1.494;2023-07-29T09:46:04;6.47;;;3.80;;
78873;SDS011;68250;43.514;1.494;2023-07-29T09:48:35;7.73;;;3.63;;
78873;SDS011;68250;43.514;1.494;2023-07-29T09:51:11;7.95;;;4.07;;
78873;SDS011;68250;43.514;1.494;2023-07-29T09:53:44;6.97;;;3.67;;
78873;SDS011;68250;43.514;1.494;2023-07-29T09:56:12;6.50;;;3.92;;
78873;SDS011;68250;43.514;1.494;2023-07-29T09:58:38;6.18;;;4.00;;
78873;SDS011;68250;43.514;1.494;2023-07-29T10:01:05;5.43;;;3.77;;
78873;SDS011;68250;43.514;1.494;2023-07-29T10:03:31;7.53;;;3.58;;
78873;SDS011;68250;43.514;1.494;2023-07-29T10:06:00;6.15;;;4.00;;
78873;SDS011;68250;43.514;1.494;2023-07-29T10:08:29;5.97;;;3.50;;
78873;SDS011;68250;43.514;1.494;2023-07-29T10:11:14;7.23;;;3.90;;
78873;SDS011;68250;43.514;1.494;2023-07-29T10:13:39;6.22;;;3.70;;
78873;SDS011;68250;43.514;1.494;2023-07-29T10:16:05;5.57;;;3.87;;
78873;SDS011;68250;43.514;1.494;2023-07-29T10:18:31;5.88;;;3.65;;
78873;SDS011;68250;43.514;1.494;2023-07-29T10:20:58;6.78;;;4.05;;
78873;SDS011;68250;43.514;1.494;2023-07-29T10:23:26;5.57;;;3.60;;
78873;SDS011;68250;43.514;1.494;2023-07-29T10:28:29;7.07;;;3.70;;
78873;SDS011;68250;43.514;1.494;2023-07-29T10:30:56;6.28;;;4.05;;
78873;SDS011;68250;43.514;1.494;2023-07-29T10:33:22;6.28;;;3.60;;
78873;SDS011;68250;43.514;1.494;2023-07-29T10:35:48;7.00;;;4.00;;
78873;SDS011;68250;43.514;1.494;2023-07-29T10:38:14;6.37;;;3.57;;
78873;SDS011;68250;43.514;1.494;2023-07-29T10:40:47;5.88;;;3.92;;
78873;SDS011;68250;43.514;1.494;2023-07-29T10:43:24;6.70;;;4.20;;
78873;SDS011;68250;43.514;1.494;2023-07-29T10:45:51;6.78;;;3.75;;
78873;SDS011;68250;43.514;1.494;2023-07-29T10:54:12;7.13;;;4.00;;
78873;SDS011;68250;43.514;1.494;2023-07-29T10:56:42;6.20;;;3.90;;
78873;SDS011;68250;43.514;1.494;2023-07-29T11:01:40;5.77;;;3.60;;
78873;SDS011;68250;43.514;1.494;2023-07-29T11:09:40;7.27;;;4.00;;
78873;SDS011;68250;43.514;1.494;2023-07-29T11:17:37;7.13;;;3.83;;
78873;SDS011;68250;43.514;1.494;2023-07-29T11:20:05;6.35;;;3.80;;
78873;SDS011;68250;43.514;1.494;2023-07-29T11:22:32;7.10;;;4.00;;
78873;SDS011;68250;43.514;1.494;2023-07-29T11:24:58;7.32;;;3.80;;
78873;SDS011;68250;43.514;1.494;2023-07-29T11:27:24;5.93;;;3.88;;
78873;SDS011;68250;43.514;1.494;2023-07-29T11:29:49;6.80;;;3.87;;
78873;SDS011;68250;43.514;1.494;2023-07-29T11:32:15;5.50;;;3.55;;
78873;SDS011;68250;43.514;1.494;2023-07-29T11:34:41;6.77;;;3.57;;
78873;SDS011;68250;43.514;1.494;2023-07-29T11:37:10;5.35;;;3.60;;
78873;SDS011;68250;43.514;1.494;2023-07-29T11:39:39;6.47;;;3.47;;
78873;SDS011;68250;43.514;1.494;2023-07-29T11:42:06;5.93;;;3.80;;
78873;SDS011;68250;43.514;1.494;2023-07-29T11:44:32;6.35;;;4.00;;
78873;SDS011;68250;43.514;1.494;2023-07-29T11:46:58;5.50;;;3.73;;
78873;SDS011;68250;43.514;1.494;2023-07-29T11:49:23;7.55;;;4.05;;
78873;SDS011;68250;43.514;1.494;2023-07-29T11:51:49;6.77;;;4.30;;
78873;SDS011;68250;43.514;1.494;2023-07-29T11:54:15;6.43;;;3.93;;
78873;SDS011;68250;43.514;1.494;2023-07-29T11:56:41;5.73;;;3.90;;
78873;SDS011;68250;43.514;1.494;2023-07-29T11:59:06;6.70;;;3.97;;
78873;SDS011;68250;43.514;1.494;2023-07-29T12:01:32;8.10;;;4.07;;
78873;SDS011;68250;43.514;1.494;2023-07-29T12:03:58;5.27;;;3.13;;
78873;SDS011;68250;43.514;1.494;2023-07-29T12:06:24;5.47;;;3.97;;
78873;SDS011;68250;43.514;1.494;2023-07-29T12:08:50;7.05;;;3.92;;
78873;SDS011;68250;43.514;1.494;2023-07-29T12:11:16;6.83;;;3.33;;
78873;SDS011;68250;43.514;1.494;2023-07-29T12:13:42;7.25;;;3.80;;
78873;SDS011;68250;43.514;1.494;2023-07-29T12:16:08;6.80;;;3.88;;
78873;SDS011;68250;43.514;1.494;2023-07-29T12:18:34;5.47;;;3.63;;
78873;SDS011;68250;43.514;1.494;2023-07-29T12:21:01;7.07;;;3.60;;
78873;SDS011;68250;43.514;1.494;2023-07-29T12:23:26;7.50;;;4.05;;
78873;SDS011;68250;43.514;1.494;2023-07-29T12:25:56;8.33;;;3.80;;
78873;SDS011;68250;43.514;1.494;2023-07-29T12:28:22;5.90;;;3.70;;
78873;SDS011;68250;43.514;1.494;2023-07-29T12:30:53;5.40;;;3.63;;
78873;SDS011;68250;43.514;1.494;2023-07-29T12:33:31;6.73;;;3.77;;
78873;SDS011;68250;43.514;1.494;2023-07-29T12:35:57;8.85;;;4.43;;
78873;SDS011;68250;43.514;1.494;2023-07-29T12:38:25;7.57;;;3.97;;
78873;SDS011;68250;43.514;1.494;2023-07-29T12:40:51;6.70;;;4.13;;
78873;SDS011;68250;43.514;1.494;2023-07-29T12:43:17;7.27;;;3.97;;
78873;SDS011;68250;43.514;1.494;2023-07-29T12:45:42;6.65;;;4.15;;
78873;SDS011;68250;43.514;1.494;2023-07-29T12:48:09;6.60;;;4.05;;
78873;SDS011;68250;43.514;1.494;2023-07-29T12:50:35;6.10;;;3.77;;
78873;SDS011;68250;43.514;1.494;2023-07-29T12:53:01;6.60;;;3.65;;
78873;SDS011;68250;43.514;1.494;2023-07-29T12:55:27;6.25;;;4.13;;
78873;SDS011;68250;43.514;1.494;2023-07-29T12:57:52;6.13;;;4.03;;
78873;SDS011;68250;43.514;1.494;2023-07-29T13:00:18;5.37;;;3.73;;
78873;SDS011;68250;43.514;1.494;2023-07-29T13:02:44;7.03;;;3.65;;
78873;SDS011;68250;43.514;1.494;2023-07-29T13:05:10;6.27;;;3.83;;
78873;SDS011;68250;43.514;1.494;2023-07-29T13:07:39;6.17;;;3.93;;
78873;SDS011;68250;43.514;1.494;2023-07-29T13:10:05;6.00;;;4.05;;
78873;SDS011;68250;43.514;1.494;2023-07-29T13:12:31;10.38;;;4.10;;
78873;SDS011;68250;43.514;1.494;2023-07-29T13:14:57;6.13;;;4.30;;
78873;SDS011;68250;43.514;1.494;2023-07-29T13:17:23;6.40;;;3.90;;
78873;SDS011;68250;43.514;1.494;2023-07-29T13:19:49;6.82;;;3.65;;
78873;SDS011;68250;43.514;1.494;2023-07-29T13:22:14;5.63;;;4.03;;
78873;SDS011;68250;43.514;1.494;2023-07-29T13:24:40;6.33;;;4.00;;
78873;SDS011;68250;43.514;1.494;2023-07-29T13:27:06;7.85;;;4.07;;
78873;SDS011;68250;43.514;1.494;2023-07-29T13:29:32;8.10;;;4.07;;
78873;SDS011;68250;43.514;1.494;2023-07-29T13:31:57;7.22;;;4.03;;
78873;SDS011;68250;43.514;1.494;2023-07-29T13:34:23;6.37;;;4.40;;
78873;SDS011;68250;43.514;1.494;2023-07-29T13:36:49;7.18;;;4.10;;
78873;SDS011;68250;43.514;1.494;2023-07-29T13:39:15;8.17;;;4.20;;
78873;SDS011;68250;43.514;1.494;2023-07-29T13:41:40;5.35;;;4.30;;
78873;SDS011;68250;43.514;1.494;2023-07-29T13:44:06;6.78;;;3.88;;
78873;SDS011;68250;43.514;1.494;2023-07-29T13:46:32;6.83;;;4.47;;
78873;SDS011;68250;43.514;1.494;2023-07-29T13:48:57;6.77;;;4.47;;
78873;SDS011;68250;43.514;1.494;2023-07-29T13:51:23;6.15;;;4.13;;
78873;SDS011;68250;43.514;1.494;2023-07-29T13:53:49;5.93;;;4.30;;
78873;SDS011;68250;43.514;1.494;2023-07-29T13:56:15;6.70;;;3.80;;
78873;SDS011;68250;43.514;1.494;2023-07-29T13:58:40;7.90;;;4.82;;
78873;SDS011;68250;43.514;1.494;2023-07-29T14:01:06;7.37;;;4.40;;
78873;SDS011;68250;43.514;1.494;2023-07-29T14:03:32;6.53;;;3.40;;
78873;SDS011;68250;43.514;1.494;2023-07-29T14:05:57;7.72;;;3.50;;
78873;SDS011;68250;43.514;1.494;2023-07-29T14:08:23;8.17;;;4.00;;
78873;SDS011;68250;43.514;1.494;2023-07-29T14:10:49;8.38;;;4.07;;
78873;SDS011;68250;43.514;1.494;2023-07-29T14:13:15;11.55;;;3.95;;
78873;SDS011;68250;43.514;1.494;2023-07-29T14:15:40;8.07;;;3.67;;
78873;SDS011;68250;43.514;1.494;2023-07-29T14:18:06;7.53;;;4.00;;
78873;SDS011;68250;43.514;1.494;2023-07-29T14:20:32;7.43;;;4.32;;
78873;SDS011;68250;43.514;1.494;2023-07-29T14:22:58;6.20;;;4.03;;
78873;SDS011;68250;43.514;1.494;2023-07-29T14:25:23;6.00;;;3.80;;
78873;SDS011;68250;43.514;1.494;2023-07-29T14:27:50;5.15;;;3.60;;
78873;SDS011;68250;43.514;1.494;2023-07-29T14:30:15;9.30;;;3.90;;
78873;SDS011;68250;43.514;1.494;2023-07-29T14:32:41;5.93;;;3.78;;
78873;SDS011;68250;43.514;1.494;2023-07-29T14:35:07;8.93;;;3.77;;
78873;SDS011;68250;43.514;1.494;2023-07-29T14:37:33;7.50;;;3.80;;
78873;SDS011;68250;43.514;1.494;2023-07-29T14:39:59;5.70;;;3.78;;
78873;SDS011;68250;43.514;1.494;2023-07-29T14:42:26;5.80;;;4.53;;
78873;SDS011;68250;43.514;1.494;2023-07-29T14:44:52;6.77;;;3.63;;
78873;SDS011;68250;43.514;1.494;2023-07-29T14:47:18;7.07;;;3.70;;
78873;SDS011;68250;43.514;1.494;2023-07-29T14:49:43;7.20;;;3.95;;
78873;SDS011;68250;43.514;1.494;2023-07-29T14:52:10;8.53;;;3.67;;
78873;SDS011;68250;43.514;1.494;2023-07-29T14:54:35;23.85;;;4.20;;
78873;SDS011;68250;43.514;1.494;2023-07-29T14:57:01;11.25;;;3.70;;
78873;SDS011;68250;43.514;1.494;2023-07-29T14:59:27;6.87;;;4.40;;
78873;SDS011;68250;43.514;1.494;2023-07-29T15:01:53;6.68;;;4.07;;
78873;SDS011;68250;43.514;1.494;2023-07-29T15:04:19;5.93;;;4.03;;
78873;SDS011;68250;43.514;1.494;2023-07-29T15:06:44;6.18;;;4.40;;
78873;SDS011;68250;43.514;1.494;2023-07-29T15:09:10;6.50;;;3.80;;
78873;SDS011;68250;43.514;1.494;2023-07-29T15:11:36;6.22;;;4.13;;
78873;SDS011;68250;43.514;1.494;2023-07-29T15:14:02;7.80;;;4.03;;